createdAt,value
2018-03-27T00:00:55.848Z,35.37
2018-03-27T00:03:24.098Z,33.80
2018-03-27T00:05:53.115Z,36.77
2018-03-27T00:08:21.353Z,36.70
2018-03-27T00:10:49.605Z,34.97
2018-03-27T00:13:17.851Z,32.83
2018-03-27T00:15:46.098Z,33.93
2018-03-27T00:18:15.100Z,32.23
2018-03-27T00:20:43.357Z,32.53
2018-03-27T00:23:12.374Z,35.87
2018-03-27T00:25:40.616Z,37.50
2018-03-27T00:28:27.272Z,34.40
2018-03-27T00:31:13.446Z,34.93
2018-03-27T00:33:59.594Z,36.33
2018-03-27T00:36:45.927Z,35.93
2018-03-27T00:39:32.797Z,33.10
2018-03-27T00:45:04.118Z,37.43
2018-03-27T00:47:32.403Z,33.87
2018-03-27T00:50:00.636Z,36.90
2018-03-27T00:52:28.894Z,34.30
2018-03-27T00:54:57.141Z,34.27
2018-03-27T00:57:25.393Z,37.47
2018-03-27T00:59:53.638Z,32.43
2018-03-27T01:02:21.901Z,35.10
2018-03-27T01:04:50.150Z,35.87
2018-03-27T01:07:18.408Z,32.80
2018-03-27T01:09:46.645Z,35.20
2018-03-27T01:12:14.956Z,33.67
2018-03-27T01:14:43.198Z,31.20
2018-03-27T01:17:11.443Z,35.67
2018-03-27T01:19:39.696Z,34.17
2018-03-27T01:22:07.936Z,31.83
2018-03-27T01:24:36.189Z,34.43
2018-03-27T01:27:04.428Z,33.10
2018-03-27T01:29:32.693Z,31.73
2018-03-27T01:32:00.926Z,33.77
2018-03-27T01:34:29.947Z,33.37
2018-03-27T01:36:58.195Z,32.67
2018-03-27T01:39:26.446Z,35.37
2018-03-27T01:41:54.693Z,37.03
2018-03-27T01:44:22.946Z,34.73
2018-03-27T01:46:51.186Z,37.50
2018-03-27T01:49:19.434Z,32.80
2018-03-27T01:51:47.683Z,34.57
2018-03-27T01:54:15.939Z,36.23
2018-03-27T01:56:44.945Z,37.95
2018-03-27T01:59:13.210Z,39.37
2018-03-27T02:01:41.448Z,38.53
2018-03-27T02:04:11.081Z,38.40
2018-03-27T02:06:40.084Z,36.87
2018-03-27T02:09:08.341Z,36.57
2018-03-27T02:11:42.952Z,36.47
2018-03-27T02:14:16.784Z,37.50
2018-03-27T02:16:50.589Z,36.77
2018-03-27T02:19:25.212Z,38.37
2018-03-27T02:21:52.821Z,38.33
2018-03-27T02:27:17.900Z,38.97
2018-03-27T02:29:46.173Z,40.60
2018-03-27T02:32:14.417Z,41.78
2018-03-27T02:34:42.680Z,38.80
2018-03-27T02:37:10.928Z,41.03
2018-03-27T02:39:39.187Z,39.53
2018-03-27T02:42:07.466Z,37.53
2018-03-27T02:44:35.707Z,37.60
2018-03-27T02:47:04.730Z,36.40
2018-03-27T02:49:32.978Z,38.50
2018-03-27T02:52:01.245Z,38.83
2018-03-27T02:54:29.486Z,38.90
2018-03-27T02:56:57.739Z,36.08
2018-03-27T02:59:26.039Z,39.30
2018-03-27T03:01:54.240Z,37.95
2018-03-27T03:04:22.494Z,37.57
2018-03-27T03:06:50.735Z,37.33
2018-03-27T03:09:18.981Z,39.92
2018-03-27T03:11:48.010Z,38.57
2018-03-27T03:14:16.241Z,40.70
2018-03-27T03:16:44.497Z,40.70
2018-03-27T03:19:12.741Z,42.67
2018-03-27T03:21:41.028Z,39.67
2018-03-27T03:24:09.277Z,41.17
2018-03-27T03:26:37.518Z,40.43
2018-03-27T03:29:06.547Z,38.50
2018-03-27T03:31:34.786Z,36.42
2018-03-27T03:34:03.046Z,36.85
2018-03-27T03:36:31.282Z,41.63
2018-03-27T03:38:59.540Z,39.60
2018-03-27T03:41:27.798Z,36.60
2018-03-27T03:43:56.826Z,35.47
2018-03-27T03:46:25.067Z,36.93
2018-03-27T03:48:53.316Z,38.10
2018-03-27T03:51:21.567Z,40.23
2018-03-27T03:53:49.823Z,36.17
2018-03-27T03:56:18.067Z,38.53
2018-03-27T03:58:47.094Z,38.08
2018-03-27T04:01:15.345Z,38.77
2018-03-27T04:03:43.603Z,34.83
2018-03-27T04:06:11.845Z,36.77
2018-03-27T04:08:40.097Z,36.50
2018-03-27T04:11:08.349Z,33.13
2018-03-27T04:13:37.364Z,39.53
2018-03-27T04:16:05.608Z,36.27
2018-03-27T04:18:34.734Z,38.33
2018-03-27T04:21:02.988Z,39.27
2018-03-27T04:23:31.234Z,41.17
2018-03-27T04:25:59.499Z,40.70
2018-03-27T04:28:27.749Z,38.50
2018-03-27T04:30:55.996Z,36.47
2018-03-27T04:33:25.006Z,38.87
2018-03-27T04:35:53.284Z,41.23
2018-03-27T04:38:21.526Z,38.27
2018-03-27T04:40:49.776Z,32.67
2018-03-27T04:43:18.021Z,37.23
2018-03-27T04:45:47.050Z,40.55
2018-03-27T04:48:15.301Z,37.10
2018-03-27T04:50:43.541Z,33.80
2018-03-27T04:53:11.791Z,34.50
2018-03-27T04:55:40.822Z,35.57
2018-03-27T04:58:09.072Z,35.07
2018-03-27T05:00:38.085Z,34.63
2018-03-27T05:03:06.338Z,38.03
2018-03-27T05:05:35.353Z,36.33
2018-03-27T05:08:03.600Z,38.23
2018-03-27T05:10:31.854Z,37.97
2018-03-27T05:13:00.098Z,37.47
2018-03-27T05:15:28.340Z,38.90
2018-03-27T05:17:57.350Z,38.40
2018-03-27T05:20:25.591Z,39.40
2018-03-27T05:22:54.609Z,39.10
2018-03-27T05:25:22.859Z,35.20
2018-03-27T05:27:51.113Z,39.63
2018-03-27T05:30:19.367Z,37.60
2018-03-27T05:32:47.646Z,36.47
2018-03-27T05:35:15.866Z,36.00
2018-03-27T05:37:44.115Z,35.77
2018-03-27T05:40:12.367Z,38.27
2018-03-27T05:42:40.626Z,38.50
2018-03-27T05:45:08.865Z,41.10
2018-03-27T05:47:37.878Z,40.67
2018-03-27T05:50:06.145Z,40.63
2018-03-27T05:52:34.398Z,39.08
2018-03-27T05:55:02.654Z,39.83
2018-03-27T05:57:30.909Z,45.20
2018-03-27T05:59:59.156Z,39.40
2018-03-27T06:02:27.427Z,45.60
2018-03-27T06:04:56.445Z,42.40
2018-03-27T06:07:24.702Z,43.13
2018-03-27T06:09:52.956Z,45.33
2018-03-27T06:12:21.966Z,45.80
2018-03-27T06:14:50.217Z,45.80
2018-03-27T06:17:18.463Z,45.30
2018-03-27T06:19:46.710Z,42.47
2018-03-27T06:22:14.968Z,43.23
2018-03-27T06:24:43.971Z,41.90
2018-03-27T06:27:12.221Z,42.57
2018-03-27T06:29:41.233Z,44.40
2018-03-27T06:32:09.490Z,42.87
2018-03-27T06:34:37.742Z,39.60
2018-03-27T06:37:05.986Z,38.60
2018-03-27T06:39:34.246Z,38.37
2018-03-27T06:42:02.539Z,38.67
2018-03-27T06:44:31.512Z,38.17
2018-03-27T06:46:59.777Z,37.23
2018-03-27T06:49:28.025Z,39.20
2018-03-27T06:51:57.049Z,35.90
2018-03-27T06:54:25.331Z,39.57
2018-03-27T06:56:54.315Z,38.47
2018-03-27T06:59:22.565Z,36.57
2018-03-27T07:01:51.581Z,38.57
2018-03-27T07:04:19.831Z,32.40
2018-03-27T07:06:48.077Z,34.87
2018-03-27T07:09:17.097Z,32.77
2018-03-27T07:11:45.370Z,32.27
2018-03-27T07:14:13.595Z,34.50
2018-03-27T07:16:41.872Z,28.80
2018-03-27T07:19:10.141Z,33.53
2018-03-27T07:21:39.105Z,32.33
2018-03-27T07:24:07.890Z,28.97
2018-03-27T07:26:36.897Z,32.23
2018-03-27T07:29:05.155Z,33.23
2018-03-27T07:31:33.389Z,32.90
2018-03-27T07:34:01.640Z,31.90
2018-03-27T07:36:29.881Z,32.07
2018-03-27T07:38:58.133Z,30.47
2018-03-27T07:41:26.381Z,29.73
2018-03-27T07:43:54.634Z,34.30
2018-03-27T07:46:22.878Z,29.80
2018-03-27T07:48:51.127Z,29.53
2018-03-27T07:51:19.374Z,29.40
2018-03-27T07:53:47.630Z,29.40
2018-03-27T07:56:15.882Z,30.70
2018-03-27T07:58:44.904Z,31.33
2018-03-27T08:01:13.174Z,28.93
2018-03-27T08:03:41.422Z,30.20
2018-03-27T08:06:10.449Z,29.53
2018-03-27T08:08:38.693Z,26.80
2018-03-27T08:11:07.740Z,27.10
2018-03-27T08:13:35.953Z,23.50
2018-03-27T08:16:04.214Z,22.93
2018-03-27T08:18:32.479Z,23.93
2018-03-27T08:21:00.717Z,19.93
2018-03-27T08:23:28.965Z,19.57
2018-03-27T08:25:57.964Z,18.67
2018-03-27T08:28:26.980Z,19.37
2018-03-27T08:30:55.220Z,21.30
2018-03-27T08:33:23.466Z,20.90
2018-03-27T08:35:51.779Z,18.53
2018-03-27T08:38:20.793Z,16.33
2018-03-27T08:40:49.036Z,12.00
2018-03-27T08:43:17.291Z,15.63
2018-03-27T08:45:45.536Z,11.93
2018-03-27T08:48:13.789Z,11.70
2018-03-27T08:50:42.028Z,7.83
2018-03-27T08:53:10.275Z,12.90
2018-03-27T08:55:38.519Z,11.33
2018-03-27T08:58:06.770Z,12.43
2018-03-27T09:00:35.015Z,10.93
2018-03-27T09:03:04.038Z,11.10
2018-03-27T09:05:32.285Z,11.13
2018-03-27T09:08:00.522Z,8.73
2018-03-27T09:10:28.783Z,13.87
2018-03-27T09:12:57.784Z,16.03
2018-03-27T09:15:26.045Z,19.03
2018-03-27T09:17:55.066Z,17.80
2018-03-27T09:20:23.345Z,19.97
2018-03-27T09:22:52.323Z,19.70
2018-03-27T09:25:20.572Z,25.37
2018-03-27T09:27:49.578Z,23.80
2018-03-27T09:30:18.597Z,17.30
2018-03-27T09:32:46.845Z,27.50
2018-03-27T09:35:15.861Z,31.83
2018-03-27T09:37:44.110Z,28.00
2018-03-27T09:40:13.165Z,16.50
2018-03-27T09:42:41.393Z,22.67
2018-03-27T09:45:09.644Z,21.00
2018-03-27T09:47:37.886Z,19.30
2018-03-27T09:50:06.134Z,23.23
2018-03-27T09:52:34.387Z,17.90
2018-03-27T09:55:03.390Z,16.63
2018-03-27T09:57:31.654Z,19.73
2018-03-27T09:59:59.897Z,15.13
2018-03-27T10:02:28.149Z,14.53
2018-03-27T10:04:56.397Z,16.73
2018-03-27T10:07:24.646Z,13.23
2018-03-27T10:09:53.657Z,15.57
2018-03-27T10:12:21.905Z,16.00
2018-03-27T10:14:50.925Z,15.00
2018-03-27T10:17:19.174Z,14.63
2018-03-27T10:19:47.425Z,15.07
2018-03-27T10:22:15.671Z,16.73
2018-03-27T10:24:43.930Z,11.07
2018-03-27T10:27:12.176Z,8.97
2018-03-27T10:29:40.426Z,12.20
2018-03-27T10:32:09.442Z,15.57
2018-03-27T10:34:37.690Z,13.70
2018-03-27T10:37:05.951Z,12.27
2018-03-27T10:39:34.207Z,15.10
2018-03-27T10:42:02.461Z,11.87
2018-03-27T10:44:31.487Z,12.47
2018-03-27T10:46:59.735Z,14.57
2018-03-27T10:49:28.742Z,13.87
2018-03-27T10:51:56.997Z,17.87
2018-03-27T10:54:26.005Z,15.70
2018-03-27T10:56:54.262Z,14.03
2018-03-27T10:59:23.270Z,18.20
2018-03-27T11:01:51.515Z,17.33
2018-03-27T11:04:19.763Z,20.70
2018-03-27T11:06:48.006Z,19.37
2018-03-27T11:09:16.252Z,20.97
2018-03-27T11:11:45.270Z,17.47
2018-03-27T11:14:13.518Z,17.20
2018-03-27T11:16:42.529Z,18.60
2018-03-27T11:19:11.542Z,15.10
2018-03-27T11:21:39.790Z,15.20
2018-03-27T11:24:08.809Z,13.90
2018-03-27T11:26:37.054Z,18.90
2018-03-27T11:29:06.061Z,18.80
2018-03-27T11:31:34.310Z,21.60
2018-03-27T11:34:02.550Z,12.93
2018-03-27T11:36:30.794Z,13.83
2018-03-27T11:38:59.045Z,15.90
2018-03-27T11:41:28.061Z,14.13
2018-03-27T11:43:56.313Z,13.00
2018-03-27T11:46:25.329Z,12.07
2018-03-27T11:48:54.340Z,15.37
2018-03-27T11:51:22.585Z,14.90
2018-03-27T11:53:51.599Z,18.73
2018-03-27T11:56:19.845Z,18.23
2018-03-27T11:58:48.851Z,12.23
2018-03-27T12:01:17.858Z,15.13
2018-03-27T12:03:46.095Z,17.30
2018-03-27T12:06:14.342Z,14.30
2018-03-27T12:08:42.594Z,16.70
2018-03-27T12:11:10.841Z,18.53
2018-03-27T12:13:39.854Z,15.27
2018-03-27T12:16:08.109Z,15.00
2018-03-27T12:18:37.121Z,13.67
2018-03-27T12:21:05.377Z,15.60
2018-03-27T12:23:34.396Z,14.70
2018-03-27T12:26:02.640Z,12.63
2018-03-27T12:28:31.657Z,12.93
2018-03-27T12:30:59.905Z,12.83
2018-03-27T12:33:28.921Z,15.23
2018-03-27T12:35:57.169Z,17.07
2018-03-27T12:38:26.186Z,16.50
2018-03-27T12:40:54.430Z,12.90
2018-03-27T12:43:22.691Z,13.87
2018-03-27T12:45:50.929Z,17.13
2018-03-27T12:48:19.186Z,15.90
2018-03-27T12:50:47.435Z,15.43
2018-03-27T12:53:16.488Z,17.27
2018-03-27T12:55:44.699Z,17.07
2018-03-27T12:58:12.973Z,18.17
2018-03-27T13:00:41.214Z,16.63
2018-03-27T13:03:09.457Z,13.67
2018-03-27T13:05:37.729Z,11.47
2018-03-27T13:08:06.728Z,14.50
2018-03-27T13:10:34.977Z,14.13
2018-03-27T13:13:03.994Z,17.97
2018-03-27T13:15:32.251Z,14.87
2018-03-27T13:18:01.254Z,14.70
2018-03-27T13:20:30.274Z,14.83
2018-03-27T13:22:58.513Z,11.97
2018-03-27T13:25:27.538Z,17.60
2018-03-27T13:27:55.782Z,15.40
2018-03-27T13:30:24.816Z,16.27
2018-03-27T13:32:53.064Z,10.33
2018-03-27T13:35:21.314Z,18.10
2018-03-27T13:37:49.559Z,17.70
2018-03-27T13:40:17.812Z,17.07
2018-03-27T13:42:46.057Z,12.53
2018-03-27T13:45:15.091Z,18.13
2018-03-27T13:47:43.334Z,18.00
2018-03-27T13:50:12.334Z,15.00
2018-03-27T13:52:40.589Z,15.77
2018-03-27T13:55:09.590Z,15.30
2018-03-27T13:57:38.610Z,14.03
2018-03-27T14:00:08.505Z,13.80
2018-03-27T14:02:36.749Z,14.50
2018-03-27T14:05:04.994Z,15.43
2018-03-27T14:07:33.245Z,13.67
2018-03-27T14:10:01.489Z,16.97
2018-03-27T14:12:30.502Z,17.17
2018-03-27T14:14:58.755Z,13.97
2018-03-27T14:17:27.023Z,11.87
2018-03-27T14:19:55.254Z,13.27
2018-03-27T14:22:23.499Z,15.10
2018-03-27T14:24:51.741Z,19.50
2018-03-27T14:27:19.989Z,17.00
2018-03-27T14:29:48.257Z,18.20
2018-03-27T14:32:16.505Z,14.33
2018-03-27T14:34:44.757Z,13.10
2018-03-27T14:37:13.761Z,14.77
2018-03-27T14:39:42.014Z,18.47
2018-03-27T14:42:10.258Z,11.70
2018-03-27T14:44:38.759Z,16.20
2018-03-27T14:47:07.139Z,21.17
2018-03-27T14:49:36.411Z,14.63
2018-03-27T14:52:04.999Z,17.90
2018-03-27T14:54:33.553Z,19.17
2018-03-27T14:57:02.255Z,18.27
2018-03-27T14:59:30.683Z,16.03
2018-03-27T15:01:59.711Z,17.57
2018-03-27T15:04:27.982Z,12.10
2018-03-27T15:06:56.986Z,12.87
2018-03-27T15:09:25.252Z,17.87
2018-03-27T15:11:53.503Z,17.47
2018-03-27T15:14:22.537Z,16.27
2018-03-27T15:16:50.777Z,14.70
2018-03-27T15:19:19.895Z,18.83
2018-03-27T15:21:48.158Z,14.00
2018-03-27T15:24:16.406Z,16.43
2018-03-27T15:26:44.650Z,19.20
2018-03-27T15:29:12.999Z,17.50
2018-03-27T15:31:41.253Z,20.10
2018-03-27T15:34:10.269Z,19.97
2018-03-27T15:36:38.537Z,14.43
2018-03-27T15:39:06.784Z,16.77
2018-03-27T15:41:35.797Z,14.30
2018-03-27T15:44:04.057Z,19.20
2018-03-27T15:46:33.074Z,15.67
2018-03-27T15:49:01.321Z,18.60
2018-03-27T15:51:29.574Z,16.30
2018-03-27T15:53:57.823Z,21.00
2018-03-27T15:56:26.074Z,17.53
2018-03-27T15:58:54.320Z,19.90
2018-03-27T16:01:22.571Z,19.20
2018-03-27T16:03:50.824Z,19.83
2018-03-27T16:06:19.059Z,21.03
2018-03-27T16:08:48.073Z,20.47
2018-03-27T16:11:16.321Z,21.67
2018-03-27T16:13:45.374Z,17.50
2018-03-27T16:16:13.631Z,17.73
2018-03-27T16:18:41.892Z,28.20
2018-03-27T16:21:10.126Z,21.17
2018-03-27T16:23:38.377Z,22.13
2018-03-27T16:26:06.679Z,22.07
2018-03-27T16:28:34.891Z,21.40
2018-03-27T16:31:03.137Z,20.70
2018-03-27T16:33:32.175Z,22.90
2018-03-27T16:36:00.410Z,20.57
2018-03-27T16:38:28.659Z,22.97
2018-03-27T16:40:56.907Z,21.27
2018-03-27T16:43:25.165Z,20.23
2018-03-27T16:45:53.406Z,25.30
2018-03-27T16:48:21.644Z,20.97
2018-03-27T16:50:49.909Z,21.50
2018-03-27T16:53:18.153Z,21.80
2018-03-27T16:55:47.165Z,21.77
2018-03-27T16:58:15.421Z,22.83
2018-03-27T17:00:44.439Z,21.70
2018-03-27T17:03:12.700Z,25.17
2018-03-27T17:05:40.952Z,23.23
2018-03-27T17:08:09.186Z,20.23
2018-03-27T17:10:37.434Z,23.73
2018-03-27T17:13:05.676Z,22.10
2018-03-27T17:15:34.694Z,23.70
2018-03-27T17:18:02.933Z,24.30
2018-03-27T17:20:31.185Z,24.50
2018-03-27T17:22:59.438Z,25.67
2018-03-27T17:25:27.688Z,23.53
2018-03-27T17:27:55.940Z,35.03
2018-03-27T17:30:24.198Z,31.00
2018-03-27T17:32:52.442Z,27.77
2018-03-27T17:35:20.686Z,22.83
2018-03-27T17:37:49.697Z,25.73
2018-03-27T17:40:17.973Z,22.90
2018-03-27T17:42:46.226Z,27.20
2018-03-27T17:45:15.238Z,23.60
2018-03-27T17:47:43.482Z,21.87
2018-03-27T17:50:12.494Z,19.37
2018-03-27T17:52:41.512Z,22.73
2018-03-27T17:55:09.757Z,22.07
2018-03-27T17:57:38.784Z,23.60
2018-03-27T18:00:07.026Z,24.00
2018-03-27T18:02:36.045Z,21.93
2018-03-27T18:05:04.284Z,21.17
2018-03-27T18:07:33.302Z,22.70
2018-03-27T18:10:01.550Z,26.47
2018-03-27T18:12:30.573Z,24.60
2018-03-27T18:14:58.818Z,22.80
2018-03-27T18:17:27.841Z,23.03
2018-03-27T18:19:56.098Z,25.87
2018-03-27T18:22:25.113Z,21.03
2018-03-27T18:24:53.358Z,26.40
2018-03-27T18:27:22.377Z,20.93
2018-03-27T18:29:50.622Z,25.80
2018-03-27T18:32:19.629Z,22.27
2018-03-27T18:34:48.695Z,20.17
2018-03-27T18:37:16.938Z,23.33
2018-03-27T18:39:45.197Z,23.70
2018-03-27T18:42:13.491Z,19.13
2018-03-27T18:44:41.844Z,22.40
2018-03-27T18:47:10.175Z,20.20
2018-03-27T18:49:38.437Z,24.20
2018-03-27T18:52:06.721Z,18.30
2018-03-27T18:54:34.983Z,15.30
2018-03-27T18:57:03.256Z,16.20
2018-03-27T18:59:31.532Z,11.70
2018-03-27T19:01:59.791Z,19.80
2018-03-27T19:04:28.037Z,19.60
2018-03-27T19:06:56.418Z,18.50
2018-03-27T19:09:25.466Z,18.63
2018-03-27T19:11:53.687Z,21.03
2018-03-27T19:14:22.707Z,19.57
2018-03-27T19:16:50.973Z,19.07
2018-03-27T19:19:19.253Z,19.50
2018-03-27T19:21:47.507Z,17.30
2018-03-27T19:24:16.519Z,18.47
2018-03-27T19:26:44.781Z,17.30
2018-03-27T19:29:13.265Z,17.33
2018-03-27T19:31:42.470Z,15.17
2018-03-27T19:34:10.725Z,19.23
2018-03-27T19:36:39.750Z,18.77
2018-03-27T19:39:08.145Z,19.20
2018-03-27T19:41:36.469Z,17.67
2018-03-27T19:44:05.490Z,15.73
2018-03-27T19:46:33.761Z,15.67
2018-03-27T19:49:02.010Z,16.80
2018-03-27T19:51:31.177Z,17.63
2018-03-27T19:53:59.524Z,18.43
2018-03-27T19:56:27.819Z,18.60
2018-03-27T19:58:56.077Z,18.27
2018-03-27T20:01:24.334Z,19.63
2018-03-27T20:03:52.578Z,17.77
2018-03-27T20:06:20.831Z,19.43
2018-03-27T20:08:49.180Z,18.50
2018-03-27T20:11:18.523Z,20.77
2018-03-27T20:13:46.744Z,20.53
2018-03-27T20:16:15.006Z,20.07
2018-03-27T20:18:43.254Z,18.53
2018-03-27T20:21:11.505Z,19.47
2018-03-27T20:23:39.862Z,20.30
2018-03-27T20:26:08.124Z,20.80
2018-03-27T20:28:36.366Z,20.43
2018-03-27T20:31:05.390Z,19.33
2018-03-27T20:33:33.653Z,20.27
2018-03-27T20:36:01.917Z,19.20
2018-03-27T20:38:30.937Z,19.27
2018-03-27T20:40:59.188Z,20.50
2018-03-27T20:43:28.194Z,18.67
2018-03-27T20:45:56.442Z,19.47
2018-03-27T20:48:24.703Z,19.90
2018-03-27T20:50:52.945Z,19.33
2018-03-27T20:53:21.208Z,19.10
2018-03-27T20:55:49.460Z,17.83
2018-03-27T20:58:18.482Z,17.50
2018-03-27T21:00:46.730Z,17.20
2018-03-27T21:03:15.752Z,17.87
2018-03-27T21:05:43.997Z,16.57
2018-03-27T21:08:13.024Z,16.23
2018-03-27T21:10:41.282Z,15.80
2018-03-27T21:13:09.541Z,14.83
2018-03-27T21:15:38.555Z,17.80
2018-03-27T21:18:06.803Z,17.77
2018-03-27T21:20:35.053Z,16.23
2018-03-27T21:23:03.303Z,15.87
2018-03-27T21:25:31.550Z,16.53
2018-03-27T21:27:59.794Z,13.83
2018-03-27T21:30:28.054Z,14.33
2018-03-27T21:32:56.290Z,16.17
2018-03-27T21:35:24.546Z,17.53
2018-03-27T21:37:53.550Z,16.27
2018-03-27T21:40:21.802Z,17.43
2018-03-27T21:42:50.805Z,16.37
2018-03-27T21:45:19.822Z,15.00
2018-03-27T21:47:48.095Z,13.40
2018-03-27T21:50:16.349Z,14.10
2018-03-27T21:52:45.372Z,14.30
2018-03-27T21:55:13.610Z,14.20
2018-03-27T21:57:42.626Z,17.43
2018-03-27T22:00:10.862Z,20.37
2018-03-27T22:02:39.119Z,18.90
2018-03-27T22:05:07.361Z,15.97
2018-03-27T22:07:35.617Z,16.53
2018-03-27T22:10:04.740Z,17.03
2018-03-27T22:12:32.989Z,21.83
2018-03-27T22:15:02.005Z,21.30
2018-03-27T22:17:30.253Z,20.83
2018-03-27T22:19:58.494Z,21.70
2018-03-27T22:22:26.753Z,20.37
2018-03-27T22:24:54.994Z,20.13
2018-03-27T22:27:23.236Z,18.43
2018-03-27T22:29:51.481Z,20.93
2018-03-27T22:32:19.733Z,19.40
2018-03-27T22:34:47.976Z,19.73
2018-03-27T22:37:16.995Z,20.03
2018-03-27T22:39:45.232Z,19.50
2018-03-27T22:42:13.485Z,20.17
2018-03-27T22:44:41.738Z,19.70
2018-03-27T22:47:09.992Z,20.53
2018-03-27T22:49:38.239Z,22.30
2018-03-27T22:52:06.477Z,20.93
2018-03-27T22:54:34.730Z,20.27
2018-03-27T22:57:02.961Z,20.63
2018-03-27T22:59:31.213Z,19.23
2018-03-27T23:01:59.463Z,20.90
2018-03-27T23:04:27.717Z,22.33
2018-03-27T23:06:55.957Z,20.50
2018-03-27T23:09:24.205Z,21.13
2018-03-27T23:11:52.528Z,19.97
2018-03-27T23:14:21.538Z,21.23
2018-03-27T23:16:49.787Z,20.27
2018-03-27T23:19:18.031Z,24.23
2018-03-27T23:21:46.282Z,23.60
2018-03-27T23:24:14.542Z,22.80
2018-03-27T23:26:42.796Z,23.83
2018-03-27T23:29:11.796Z,24.10
2018-03-27T23:31:40.809Z,24.27
2018-03-27T23:34:09.054Z,24.70
2018-03-27T23:36:38.066Z,16.83
2018-03-27T23:39:06.323Z,25.37
2018-03-27T23:41:34.584Z,25.77
2018-03-27T23:44:02.830Z,25.77
2018-03-27T23:46:31.073Z,26.17
2018-03-27T23:48:59.318Z,26.70
2018-03-27T23:51:27.815Z,27.30
2018-03-27T23:53:56.066Z,28.17
2018-03-27T23:56:25.082Z,27.47
2018-03-27T23:58:53.331Z,26.20
